Time;durP1;ratioP1;P1;durP2;ratioP2;P2;SDS_P1;SDS_P2;PMS_P1;PMS_P2;Temp;Humidity;BMP_temperature;BMP_pressure;BME280_temperature;BME280_humidity;BME280_pressure;Samples;Min_cycle;Max_cycle;Signal;HPM_P1;HPM_P2
2023/07/18 00:01:39;;;;;;;2.60;1.13;;;;;;;14.68;74.02;100103.03;5042581;28;20452;-68
2023/07/18 00:04:05;;;;;;;1.05;0.95;;;;;;;14.69;74.65;100101.28;5043742;28;20277;-68
2023/07/18 00:06:31;;;;;;;2.58;2.13;;;;;;;14.66;74.51;100102.25;5044027;28;20060;-69
2023/07/18 00:08:56;;;;;;;2.97;1.58;;;;;;;14.66;74.61;100106.59;5042673;28;20033;-68
2023/07/18 00:11:22;;;;;;;14.70;2.50;;;;;;;14.70;74.90;100111.69;5043993;28;20021;-68
2023/07/18 00:13:48;;;;;;;3.90;1.60;;;;;;;14.75;74.67;100116.78;5043875;28;20026;-68
2023/07/18 00:16:13;;;;;;;7.18;1.83;;;;;;;14.71;74.64;100100.31;5043884;28;20052;-69
2023/07/18 00:18:38;;;;;;;3.03;1.58;;;;;;;14.70;74.33;100118.66;5042925;28;20049;-69
2023/07/18 00:21:05;;;;;;;8.43;1.35;;;;;;;14.71;74.28;100109.94;5044229;28;20437;-69
2023/07/18 00:23:30;;;;;;;5.55;1.33;;;;;;;14.70;73.99;100114.28;5025930;28;20128;-69
2023/07/18 00:25:56;;;;;;;6.55;1.48;;;;;;;14.69;73.95;100104.75;5043723;28;20084;-69
2023/07/18 00:28:21;;;;;;;1.65;1.35;;;;;;;14.73;74.24;100100.28;5043967;28;20209;-69
2023/07/18 00:30:47;;;;;;;7.03;1.75;;;;;;;14.78;73.91;100095.78;5044015;28;20112;-68
2023/07/18 00:33:12;;;;;;;3.30;1.10;;;;;;;14.84;73.74;100107.84;5043925;28;20116;-69
2023/07/18 00:35:38;;;;;;;4.43;1.60;;;;;;;14.83;73.99;100104.34;5043686;28;20045;-69
2023/07/18 00:38:03;;;;;;;4.72;1.35;;;;;;;14.76;73.93;100094.94;5042577;28;20021;-69
2023/07/18 00:40:29;;;;;;;5.65;1.67;;;;;;;14.80;74.62;100070.47;5043856;28;20029;-69
2023/07/18 00:42:54;;;;;;;3.97;1.38;;;;;;;14.80;74.29;100104.47;5043832;28;20268;-69
2023/07/18 00:45:20;;;;;;;6.82;2.28;;;;;;;14.77;74.54;100095.81;5043647;28;20060;-68
2023/07/18 00:47:45;;;;;;;3.75;1.50;;;;;;;14.74;74.71;100097.63;5043770;28;20028;-68
2023/07/18 00:50:14;;;;;;;8.98;1.58;;;;;;;14.72;74.51;100102.06;5025878;28;20022;-68
2023/07/18 00:52:47;;;;;;;10.48;2.38;;;;;;;14.72;74.48;100099.44;5043813;28;20021;-69
2023/07/18 00:55:13;;;;;;;5.45;1.38;;;;;;;14.66;74.53;100101.38;5043578;28;20045;-69
2023/07/18 00:57:40;;;;;;;5.70;2.08;;;;;;;14.66;74.75;100093.53;5043684;28;20052;-68
2023/07/18 01:00:09;;;;;;;6.40;1.65;;;;;;;14.58;74.57;100107.69;5043647;28;20049;-68
2023/07/18 01:02:36;;;;;;;6.53;1.67;;;;;;;14.59;74.33;100098.94;5043457;28;20649;-68
2023/07/18 01:05:02;;;;;;;6.47;1.52;;;;;;;14.58;73.51;100104.22;5025540;28;20034;-68
2023/07/18 01:07:27;;;;;;;3.08;2.28;;;;;;;14.57;73.48;100099.91;5043521;28;20038;-68
2023/07/18 01:09:53;;;;;;;3.17;1.35;;;;;;;14.60;73.70;100102.44;5044653;28;20024;-68
2023/07/18 01:12:19;;;;;;;7.43;1.05;;;;;;;14.56;73.68;100093.81;5047230;28;20031;-69
2023/07/18 01:14:45;;;;;;;1.80;0.68;;;;;;;14.57;72.66;100100.75;5047174;28;20029;-69
2023/07/18 01:17:12;;;;;;;1.15;0.82;;;;;;;14.49;72.37;100098.38;5045587;28;20537;-68
2023/07/18 01:19:37;;;;;;;2.30;1.13;;;;;;;14.51;71.82;100106.16;5047174;28;20030;-68
2023/07/18 01:22:03;;;;;;;4.20;1.25;;;;;;;14.47;71.33;100109.78;5047126;28;20090;-68
2023/07/18 01:24:28;;;;;;;10.63;2.40;;;;;;;14.50;71.21;100099.22;5046552;28;20045;-68
2023/07/18 01:26:54;;;;;;;1.27;1.10;;;;;;;14.48;71.37;100106.25;5045532;28;20022;-69
2023/07/18 01:29:20;;;;;;;5.38;1.42;;;;;;;14.55;71.45;100110.41;5046905;28;20025;-69
2023/07/18 01:31:48;;;;;;;9.20;2.00;;;;;;;14.49;71.70;100108.81;5046880;28;20033;-68
2023/07/18 01:34:14;;;;;;;7.38;1.08;;;;;;;14.53;72.02;100114.81;5046822;28;20037;-69
2023/07/18 01:36:40;;;;;;;6.68;2.08;;;;;;;14.53;72.16;100114.81;5046602;28;20037;-69
2023/07/18 01:39:06;;;;;;;3.95;1.63;;;;;;;14.51;71.96;100106.16;5046825;28;20091;-70
2023/07/18 01:41:31;;;;;;;1.65;0.90;;;;;;;14.48;71.28;100111.47;5028516;28;20375;-69
2023/07/18 01:43:57;;;;;;;7.15;1.58;;;;;;;14.50;70.83;100105.28;5045366;28;20025;-68
2023/07/18 01:46:23;;;;;;;2.92;1.17;;;;;;;14.56;70.34;100109.50;5046346;28;20032;-69
2023/07/18 01:48:48;;;;;;;5.68;1.42;;;;;;;14.48;69.89;100101.03;5028449;28;20028;-67
2023/07/18 01:51:13;;;;;;;2.65;1.10;;;;;;;14.46;69.40;100105.44;5045404;28;20037;-68
2023/07/18 01:53:39;;;;;;;3.58;1.83;;;;;;;14.44;69.85;100112.47;5046547;28;20053;-68
2023/07/18 01:56:05;;;;;;;6.65;1.08;;;;;;;14.40;70.00;100105.59;5046244;28;20036;-68
2023/07/18 01:58:31;;;;;;;2.20;1.00;;;;;;;14.40;69.60;100110.84;5046288;28;20021;-67
2023/07/18 02:00:56;;;;;;;7.47;1.45;;;;;;;14.36;69.80;100117.94;5028413;28;20543;-68
2023/07/18 02:03:22;;;;;;;4.97;1.23;;;;;;;14.30;69.93;100113.72;5046276;28;20025;-67
2023/07/18 02:05:47;;;;;;;8.05;1.08;;;;;;;14.34;70.35;100117.97;5046200;28;20023;-67
2023/07/18 02:08:13;;;;;;;1.40;0.95;;;;;;;14.32;71.13;100111.94;5044702;28;20535;-68
2023/07/18 02:10:38;;;;;;;6.43;1.92;;;;;;;14.31;71.52;100125.91;5046077;28;20025;-68
2023/07/18 02:13:04;;;;;;;2.28;1.25;;;;;;;14.29;72.35;100117.25;5046147;28;20032;-68
2023/07/18 02:15:29;;;;;;;3.65;1.02;;;;;;;14.27;72.89;100112.94;5045894;28;20469;-68
2023/07/18 02:17:55;;;;;;;10.82;2.00;;;;;;;14.27;73.49;100121.63;5045852;28;20021;-68
2023/07/18 02:20:21;;;;;;;2.38;1.58;;;;;;;14.25;73.26;100119.06;5045118;28;20056;-68
2023/07/18 02:22:47;;;;;;;4.78;1.58;;;;;;;14.29;73.49;100116.38;5045572;28;20081;-69
2023/07/18 02:25:17;;;;;;;7.75;1.73;;;;;;;14.31;73.59;100120.66;5045402;28;20056;-68
2023/07/18 02:27:43;;;;;;;4.43;1.90;;;;;;;14.33;73.52;100113.63;5028050;28;20017;-68
2023/07/18 02:30:11;;;;;;;3.88;1.48;;;;;;;14.33;73.20;100115.41;5045799;28;20026;-68
2023/07/18 02:32:37;;;;;;;4.72;1.67;;;;;;;14.38;73.38;100122.19;5045747;28;20017;-68
2023/07/18 02:35:03;;;;;;;2.58;1.33;;;;;;;14.39;73.08;100115.22;5045536;28;20026;-68
2023/07/18 02:37:28;;;;;;;3.70;1.25;;;;;;;14.43;73.23;100122.06;5045711;28;20022;-68
2023/07/18 02:39:54;;;;;;;2.78;1.27;;;;;;;14.47;73.30;100121.06;5045401;28;20044;-67
2023/07/18 02:42:19;;;;;;;4.88;1.50;;;;;;;14.44;72.62;100118.53;5044225;28;20034;-68
2023/07/18 02:44:46;;;;;;;2.03;1.00;;;;;;;14.54;72.00;100118.25;5045306;28;20116;-68
2023/07/18 02:47:12;;;;;;;1.80;0.80;;;;;;;14.47;71.76;100110.59;5045308;28;20025;-68
2023/07/18 02:49:38;;;;;;;4.75;1.27;;;;;;;14.50;71.33;100118.34;5027631;28;20370;-67
2023/07/18 02:52:03;;;;;;;4.10;1.13;;;;;;;14.47;71.24;100104.56;5045200;28;20023;-68
2023/07/18 02:54:30;;;;;;;5.80;1.02;;;;;;;14.49;70.95;100111.44;5045000;28;20029;-67
2023/07/18 02:56:56;;;;;;;4.45;2.10;;;;;;;14.49;70.94;100121.88;5043839;28;20029;-68
2023/07/18 02:59:22;;;;;;;7.10;1.40;;;;;;;14.53;70.32;100112.19;5045197;28;20032;-69
2023/07/18 03:01:54;;;;;;;6.07;1.75;;;;;;;14.50;70.87;100117.50;5045176;28;20026;-68
2023/07/18 03:04:20;;;;;;;9.73;1.27;;;;;;;14.48;70.97;100117.56;5045301;28;20147;-68
2023/07/18 03:06:47;;;;;;;4.88;1.13;;;;;;;14.48;70.96;100124.53;5044884;28;20056;-67
2023/07/18 03:09:16;;;;;;;3.97;1.45;;;;;;;14.48;70.89;100121.91;5045079;28;20025;-68
2023/07/18 03:11:42;;;;;;;2.08;0.82;;;;;;;14.50;70.98;100109.69;5044888;28;20470;-67
2023/07/18 03:14:08;;;;;;;7.13;1.00;;;;;;;14.57;71.28;100119.03;5043613;28;20524;-67
2023/07/18 03:16:33;;;;;;;1.25;0.80;;;;;;;14.62;71.16;100117.16;5044747;28;20048;-69
2023/07/18 03:18:59;;;;;;;2.85;1.00;;;;;;;14.71;71.21;100126.44;5044805;28;20435;-69
2023/07/18 03:21:24;;;;;;;8.88;1.05;;;;;;;14.80;71.22;100116.66;5043645;28;20033;-69
2023/07/18 03:23:50;;;;;;;8.75;1.15;;;;;;;14.82;71.43;100128.78;5044515;28;20050;-68
2023/07/18 03:26:15;;;;;;;1.50;0.98;;;;;;;14.84;71.48;100129.56;5043066;28;20510;-68
2023/07/18 03:28:41;;;;;;;8.48;1.27;;;;;;;14.95;71.57;100126.63;5044679;28;20053;-68
2023/07/18 03:31:06;;;;;;;2.20;0.80;;;;;;;14.93;71.55;100130.19;5044422;28;20037;-67
2023/07/18 03:33:31;;;;;;;3.88;0.80;;;;;;;15.06;71.68;100126.31;5044488;28;20029;-67
2023/07/18 03:35:57;;;;;;;10.93;3.05;;;;;;;15.22;70.80;100117.97;5026725;28;20034;-67
2023/07/18 03:38:23;;;;;;;1.75;1.02;;;;;;;15.26;69.85;100114.34;5044475;28;20600;-68
2023/07/18 03:40:48;;;;;;;2.17;1.30;;;;;;;15.21;68.62;100121.47;5044190;28;20033;-67
2023/07/18 03:43:13;;;;;;;0.70;0.63;;;;;;;15.05;67.97;100129.81;5044570;28;20021;-68
2023/07/18 03:45:40;;;;;;;7.45;1.17;;;;;;;14.95;68.50;100131.03;5044239;28;20029;-69
2023/07/18 03:48:06;;;;;;;3.33;0.90;;;;;;;14.87;68.32;100118.19;5044262;28;20029;-68
2023/07/18 03:50:31;;;;;;;6.30;0.80;;;;;;;14.87;68.47;100118.19;5044266;28;20040;-69
2023/07/18 03:52:57;;;;;;;2.25;1.25;;;;;;;14.84;68.55;100115.69;5044226;28;20025;-68
2023/07/18 03:55:22;;;;;;;2.80;0.98;;;;;;;14.90;68.73;100117.22;5044191;28;20026;-68
2023/07/18 03:57:48;;;;;;;7.10;1.40;;;;;;;15.22;68.42;100113.56;5044259;28;20446;-67
2023/07/18 04:00:14;;;;;;;1.80;1.20;;;;;;;15.53;68.05;100114.31;5042680;28;20053;-68
2023/07/18 04:02:44;;;;;;;2.17;0.60;;;;;;;15.73;67.72;100123.25;5042864;28;20040;-68
2023/07/18 04:05:11;;;;;;;5.63;1.05;;;;;;;15.82;67.28;100114.22;5026337;28;20093;-68
2023/07/18 04:07:36;;;;;;;3.60;0.88;;;;;;;15.83;66.32;100129.88;5043979;28;20021;-68
2023/07/18 04:10:02;;;;;;;6.15;1.63;;;;;;;15.80;66.55;100113.44;5043822;28;20099;-68
2023/07/18 04:12:28;;;;;;;5.30;0.77;;;;;;;15.74;65.97;100122.34;5044009;28;20025;-69
2023/07/18 04:14:54;;;;;;;5.00;0.80;;;;;;;15.73;65.94;100118.03;5043914;28;20026;-68
2023/07/18 04:17:19;;;;;;;2.33;0.88;;;;;;;15.76;66.37;100133.63;5044181;28;20324;-68
2023/07/18 04:19:44;;;;;;;2.42;1.02;;;;;;;15.73;66.34;100116.25;5043915;28;20017;-67
2023/07/18 04:22:10;;;;;;;2.95;0.70;;;;;;;15.59;66.52;100105.44;5044006;28;20033;-67
2023/07/18 04:24:35;;;;;;;3.55;0.82;;;;;;;15.57;66.89;100122.94;5043318;28;20568;-69
2023/07/18 04:27:01;;;;;;;5.78;0.98;;;;;;;15.48;67.25;100124.94;5043865;28;20061;-68
2023/07/18 04:29:26;;;;;;;1.45;0.63;;;;;;;15.32;67.42;100102.84;5042908;28;20057;-68
2023/07/18 04:31:52;;;;;;;3.67;0.60;;;;;;;15.32;67.29;100127.22;5043926;28;20032;-68
2023/07/18 04:34:18;;;;;;;1.05;0.65;;;;;;;15.21;67.28;100124.09;5043863;28;20021;-68
2023/07/18 04:36:44;;;;;;;3.42;0.90;;;;;;;15.17;67.45;100114.66;5043712;28;20018;-69
2023/07/18 04:39:10;;;;;;;2.45;0.52;;;;;;;15.23;67.21;100125.78;5043742;28;20083;-69
2023/07/18 04:41:35;;;;;;;4.40;1.35;;;;;;;15.25;66.95;100117.88;5043623;28;20085;-68
2023/07/18 04:44:01;;;;;;;5.60;1.27;;;;;;;15.30;66.60;100113.34;5043871;28;20056;-69
2023/07/18 04:46:27;;;;;;;2.70;0.50;;;;;;;15.26;66.51;100130.03;5047512;28;20036;-69
2023/07/18 04:48:52;;;;;;;3.33;0.90;;;;;;;15.21;66.21;100132.78;5029718;28;20057;-69
2023/07/18 04:51:18;;;;;;;6.38;1.25;;;;;;;15.16;66.31;100139.94;5047491;28;20021;-69
2023/07/18 04:53:43;;;;;;;1.67;0.73;;;;;;;15.09;66.57;100138.41;5047534;28;20028;-68
2023/07/18 04:56:09;;;;;;;3.00;0.77;;;;;;;15.08;66.49;100142.78;5045954;28;20025;-68
2023/07/18 04:58:34;;;;;;;1.55;0.73;;;;;;;15.49;67.60;100137.09;5047512;28;20373;-68
2023/07/18 05:01:02;;;;;;;7.82;0.90;;;;;;;16.51;67.86;100138.00;5047574;28;20024;-69
2023/07/18 05:03:28;;;;;;;7.63;0.80;;;;;;;17.39;65.98;100138.09;5047339;28;20033;-69
2023/07/18 05:05:53;;;;;;;5.40;0.80;;;;;;;17.93;61.02;100134.97;5047313;28;20026;-69
2023/07/18 05:08:20;;;;;;;2.97;1.10;;;;;;;18.61;60.28;100140.78;5047225;28;20029;-68
2023/07/18 05:10:45;;;;;;;2.03;1.00;;;;;;;19.33;58.52;100146.13;5047091;28;20025;-67
2023/07/18 05:13:11;;;;;;;5.97;0.90;;;;;;;20.10;56.99;100137.91;5047481;28;20024;-68
2023/07/18 05:15:36;;;;;;;4.70;0.77;;;;;;;20.81;56.02;100135.00;5047111;28;20025;-68
2023/07/18 05:18:02;;;;;;;3.20;0.60;;;;;;;21.03;55.03;100142.59;5047771;28;20052;-68
2023/07/18 05:20:28;;;;;;;1.42;0.68;;;;;;;21.46;53.57;100151.59;5047325;28;20021;-68
2023/07/18 05:22:53;;;;;;;1.50;0.68;;;;;;;21.46;51.02;100141.03;5047079;28;20522;-68
2023/07/18 05:25:19;;;;;;;1.25;0.50;;;;;;;20.71;50.62;100149.63;5046570;28;20053;-68
2023/07/18 05:27:44;;;;;;;7.45;0.95;;;;;;;19.90;51.11;100160.00;5046924;28;20026;-68
2023/07/18 05:30:13;;;;;;;1.05;0.45;;;;;;;19.30;52.02;100167.34;5046924;28;20028;-68
2023/07/18 05:32:38;;;;;;;1.33;0.47;;;;;;;19.05;53.86;100171.16;5046900;28;20029;-68
2023/07/18 05:35:04;;;;;;;2.10;0.80;;;;;;;19.57;54.54;100151.97;5046581;28;20467;-68
2023/07/18 05:37:30;;;;;;;3.95;0.90;;;;;;;20.17;52.66;100154.25;5046785;28;20055;-68
2023/07/18 05:39:55;;;;;;;2.35;0.50;;;;;;;20.14;52.57;100147.38;5046491;28;20028;-68
2023/07/18 05:42:21;;;;;;;1.23;0.50;;;;;;;20.01;52.18;100152.41;5046754;28;20030;-68
2023/07/18 05:44:47;;;;;;;1.70;0.98;;;;;;;19.58;51.68;100155.47;5046841;28;20021;-68
2023/07/18 05:47:13;;;;;;;7.13;1.20;;;;;;;18.99;52.73;100171.44;5028773;28;20036;-68
2023/07/18 05:49:38;;;;;;;4.63;0.70;;;;;;;18.55;53.19;100162.91;5046703;28;20049;-68
2023/07/18 05:52:04;;;;;;;5.07;0.77;;;;;;;18.03;54.31;100169.56;5046417;28;20106;-67
2023/07/18 05:54:30;;;;;;;0.40;0.40;;;;;;;17.84;55.29;100173.81;5046158;28;20029;-67
2023/07/18 05:56:58;;;;;;;2.40;0.82;;;;;;;17.56;55.92;100166.28;5046325;28;20021;-68
2023/07/18 05:59:24;;;;;;;1.95;0.55;;;;;;;17.31;56.61;100177.78;5045022;28;20036;-69
2023/07/18 06:01:50;;;;;;;4.35;0.63;;;;;;;17.13;57.08;100189.84;5046464;28;20152;-68
2023/07/18 06:04:15;;;;;;;5.70;1.13;;;;;;;16.98;57.40;100171.19;5046440;28;20053;-69
2023/07/18 06:06:43;;;;;;;2.80;0.60;;;;;;;17.11;58.01;100173.34;5046075;28;20021;-69
2023/07/18 06:09:09;;;;;;;4.15;0.77;;;;;;;17.18;57.39;100173.03;5046162;28;20085;-69
2023/07/18 06:11:34;;;;;;;2.95;0.98;;;;;;;17.15;57.32;100172.28;5046170;28;20022;-68
2023/07/18 06:14:00;;;;;;;1.38;0.50;;;;;;;17.20;57.61;100168.56;5046108;28;20036;-69
2023/07/18 06:16:27;;;;;;;1.35;0.40;;;;;;;16.88;59.29;100182.91;5046049;28;20021;-68
2023/07/18 06:18:52;;;;;;;3.20;0.85;;;;;;;16.41;60.60;100175.00;5046039;28;20210;-69
2023/07/18 06:21:18;;;;;;;2.53;0.65;;;;;;;16.19;61.74;100175.81;5045833;28;20033;-68
2023/07/18 06:23:44;;;;;;;0.77;0.52;;;;;;;15.99;62.38;100184.34;5044372;28;20037;-67
2023/07/18 06:26:09;;;;;;;1.75;0.43;;;;;;;15.95;62.69;100195.81;5045624;28;20025;-68
2023/07/18 06:28:35;;;;;;;2.25;0.98;;;;;;;16.21;62.95;100186.22;5045867;28;20076;-68
2023/07/18 06:31:00;;;;;;;5.18;0.60;;;;;;;16.97;63.03;100185.19;5044589;28;20529;-68
2023/07/18 06:33:26;;;;;;;2.28;0.55;;;;;;;17.59;60.82;100187.13;5044562;28;20022;-69
2023/07/18 06:35:52;;;;;;;0.52;0.40;;;;;;;17.89;59.93;100183.31;5045904;28;20029;-69
2023/07/18 06:38:18;;;;;;;1.85;1.05;;;;;;;18.16;58.66;100180.44;5027834;28;20021;-68
2023/07/18 06:40:45;;;;;;;1.45;0.65;;;;;;;18.57;56.36;100187.38;5027591;28;20029;-68
2023/07/18 06:43:11;;;;;;;5.07;0.38;;;;;;;19.24;55.12;100183.44;5045589;28;20029;-69
2023/07/18 06:45:37;;;;;;;5.18;0.40;;;;;;;19.65;53.90;100177.91;5045501;28;20025;-68
2023/07/18 06:48:02;;;;;;;3.15;1.13;;;;;;;19.89;52.80;100205.72;5045309;28;20044;-67
2023/07/18 06:50:28;;;;;;;6.18;0.80;;;;;;;20.48;51.66;100197.41;5045065;28;20052;-68
2023/07/18 06:52:53;;;;;;;2.50;0.55;;;;;;;21.05;49.85;100188.19;5045336;28;20021;-68
2023/07/18 06:55:18;;;;;;;2.08;0.57;;;;;;;21.45;50.16;100193.94;5044982;28;20025;-68
2023/07/18 06:57:44;;;;;;;2.67;0.75;;;;;;;21.41;49.21;100203.84;5045241;28;20024;-68
2023/07/18 07:00:11;;;;;;;2.53;1.13;;;;;;;21.53;48.82;100210.22;5045298;28;20032;-68
2023/07/18 07:02:37;;;;;;;1.08;0.57;;;;;;;21.82;48.22;100198.91;5045032;28;20025;-67
2023/07/18 07:05:04;;;;;;;1.83;0.93;;;;;;;21.65;47.25;100198.06;5045219;28;20109;-68
2023/07/18 07:07:29;;;;;;;2.28;0.82;;;;;;;21.66;47.74;100210.34;5044549;28;20025;-69
2023/07/18 07:09:55;;;;;;;0.30;0.30;;;;;;;21.79;47.36;100207.84;5044650;28;20098;-68
2023/07/18 07:12:20;;;;;;;3.95;0.85;;;;;;;21.79;46.40;100206.06;5044924;28;20021;-68
2023/07/18 07:14:45;;;;;;;1.20;0.60;;;;;;;21.85;46.50;100210.16;5044850;28;20036;-68
2023/07/18 07:17:11;;;;;;;7.00;0.60;;;;;;;21.85;46.28;100209.28;5044920;28;20045;-68
2023/07/18 07:19:36;;;;;;;0.45;0.35;;;;;;;21.50;46.89;100218.31;5044938;28;20021;-68
2023/07/18 07:22:02;;;;;;;1.90;0.88;;;;;;;21.23;46.56;100219.78;5044926;28;20032;-68
2023/07/18 07:24:27;;;;;;;3.50;1.25;;;;;;;20.99;47.54;100206.19;5044449;28;20049;-68
2023/07/18 07:26:53;;;;;;;1.92;0.40;;;;;;;20.92;47.59;100213.59;5044432;28;20033;-68
2023/07/18 07:29:18;;;;;;;5.38;1.00;;;;;;;21.17;47.58;100207.78;5043355;28;20048;-68
2023/07/18 07:31:44;;;;;;;4.78;0.82;;;;;;;21.41;46.74;100211.75;5044800;28;20029;-68
2023/07/18 07:34:10;;;;;;;1.23;0.60;;;;;;;20.90;46.44;100207.50;5044486;28;20049;-68
2023/07/18 07:36:35;;;;;;;0.65;0.40;;;;;;;20.79;47.61;100216.00;5026684;28;20363;-68
2023/07/18 07:39:01;;;;;;;0.82;0.52;;;;;;;21.14;47.30;100220.31;5044472;28;20032;-68
2023/07/18 07:41:26;;;;;;;3.83;0.70;;;;;;;21.25;46.54;100211.78;5044276;28;20022;-68
2023/07/18 07:43:52;;;;;;;3.63;0.85;;;;;;;21.56;46.70;100225.88;5044429;28;20079;-69
2023/07/18 07:46:17;;;;;;;4.28;0.80;;;;;;;21.88;46.23;100230.25;5044205;28;20017;-68
2023/07/18 07:48:42;;;;;;;0.35;0.35;;;;;;;22.22;44.85;100220.28;5044546;28;20021;-67
2023/07/18 07:51:08;;;;;;;4.05;0.85;;;;;;;22.62;43.65;100232.06;5044474;28;20029;-69
2023/07/18 07:53:33;;;;;;;0.88;0.38;;;;;;;22.95;43.12;100228.22;5043117;28;20032;-68
2023/07/18 07:55:59;;;;;;;6.70;0.80;;;;;;;23.45;43.61;100233.00;5044028;28;20079;-68
2023/07/18 07:58:24;;;;;;;2.50;0.75;;;;;;;23.73;42.85;100233.81;5044137;28;20025;-69
2023/07/18 08:00:50;;;;;;;1.05;1.05;;;;;;;23.44;41.30;100233.09;5042517;28;20032;-68
2023/07/18 08:03:16;;;;;;;1.17;0.85;;;;;;;23.11;41.41;100237.81;5044336;28;20045;-67
2023/07/18 08:05:41;;;;;;;0.82;0.50;;;;;;;22.76;40.93;100234.66;5042559;28;20018;-67
2023/07/18 08:08:07;;;;;;;2.25;1.17;;;;;;;22.23;42.16;100222.00;5043892;28;20093;-69
2023/07/18 08:10:32;;;;;;;2.08;1.13;;;;;;;21.76;42.80;100235.28;5042534;28;20032;-68
2023/07/18 08:12:58;;;;;;;4.57;0.57;;;;;;;21.25;43.69;100233.75;5044075;28;20025;-69
2023/07/18 08:15:26;;;;;;;3.53;0.55;;;;;;;20.89;44.50;100226.91;5043962;28;20033;-69
2023/07/18 08:17:51;;;;;;;1.00;0.55;;;;;;;20.39;45.37;100251.50;5026300;28;20262;-69
2023/07/18 08:20:17;;;;;;;5.30;0.60;;;;;;;20.00;46.75;100239.44;5047571;28;20026;-68
2023/07/18 08:22:42;;;;;;;1.17;0.32;;;;;;;19.79;47.40;100248.31;5047977;28;20051;-68
2023/07/18 08:25:08;;;;;;;2.47;0.73;;;;;;;19.66;47.85;100249.88;5047666;28;20042;-68
2023/07/18 08:27:35;;;;;;;5.75;0.93;;;;;;;19.56;48.35;100246.81;5046502;28;20060;-69
2023/07/18 08:30:01;;;;;;;4.18;0.63;;;;;;;19.48;48.92;100247.22;5047946;28;20565;-68
2023/07/18 08:32:26;;;;;;;3.33;0.60;;;;;;;19.47;48.60;100242.88;5047958;28;20064;-69
2023/07/18 08:34:52;;;;;;;2.97;0.68;;;;;;;19.37;48.75;100233.69;5047843;28;20030;-68
2023/07/18 08:37:17;;;;;;;5.03;0.93;;;;;;;19.89;48.79;100235.53;5046544;28;20484;-68
2023/07/18 08:39:43;;;;;;;0.93;0.40;;;;;;;20.93;46.96;100231.13;5048068;28;20512;-69
2023/07/18 08:42:13;;;;;;;0.40;0.30;;;;;;;21.76;45.24;100247.63;5047751;28;20021;-68
2023/07/18 08:44:39;;;;;;;0.85;0.47;;;;;;;22.34;42.62;100236.34;5047667;28;20029;-68
2023/07/18 08:47:06;;;;;;;4.28;0.82;;;;;;;22.61;42.34;100243.56;5047517;28;20028;-69
2023/07/18 08:49:35;;;;;;;1.27;0.70;;;;;;;22.58;42.14;100234.00;5047758;28;20025;-68
2023/07/18 08:52:01;;;;;;;1.95;0.82;;;;;;;23.02;41.64;100249.84;5047547;28;20041;-68
2023/07/18 08:54:27;;;;;;;0.85;0.30;;;;;;;23.60;40.89;100232.94;5029715;28;20033;-68
2023/07/18 08:56:53;;;;;;;1.23;0.40;;;;;;;24.25;40.35;100228.59;5045837;28;20017;-68
2023/07/18 08:59:19;;;;;;;4.43;1.15;;;;;;;24.31;39.46;100230.00;5047389;28;20029;-69
2023/07/18 09:01:49;;;;;;;5.57;1.00;;;;;;;24.05;39.55;100221.13;5047401;28;20022;-68
2023/07/18 09:04:15;;;;;;;2.38;0.90;;;;;;;24.05;39.09;100234.38;5047421;28;20021;-68
2023/07/18 09:06:57;;;;;;;0.80;0.50;;;;;;;24.11;38.21;100213.59;5047100;28;20377;-68
2023/07/18 09:09:24;;;;;;;0.98;0.47;;;;;;;24.21;37.30;100229.78;5029108;28;20048;-68
2023/07/18 09:12:00;;;;;;;1.92;0.55;;;;;;;24.66;37.57;100219.63;5046268;28;20026;-69
2023/07/18 09:14:30;;;;;;;2.42;0.40;;;;;;;24.85;36.03;100185.50;5046655;28;20390;-68
2023/07/18 09:16:58;;;;;;;0.60;0.45;;;;;;;24.79;36.23;100230.22;5028849;28;20085;-67
2023/07/18 09:19:43;;;;;;;1.15;0.30;;;;;;;25.11;36.93;100240.38;5046838;28;20029;-67
2023/07/18 09:22:13;;;;;;;0.35;0.35;;;;;;;25.16;35.33;100224.91;5030031;28;20022;-66
2023/07/18 09:24:40;;;;;;;0.73;0.40;;;;;;;25.13;35.84;100241.06;5047799;28;20041;-66
2023/07/18 09:27:08;;;;;;;0.30;0.20;;;;;;;24.63;36.42;100239.28;5047450;28;20030;-67
2023/07/18 09:29:34;;;;;;;0.45;0.32;;;;;;;24.37;36.05;100241.97;5047278;28;20040;-67
2023/07/18 09:32:00;;;;;;;4.85;0.38;;;;;;;23.81;37.23;100243.06;5047771;28;20026;-66
2023/07/18 09:34:27;;;;;;;1.75;0.90;;;;;;;23.76;38.33;100248.66;5047616;28;20093;-67
2023/07/18 09:37:03;;;;;;;0.75;0.20;;;;;;;24.06;38.41;100250.19;5030072;28;20021;-67
2023/07/18 09:39:29;;;;;;;2.50;0.98;;;;;;;24.37;37.40;100237.50;5047653;28;20068;-67
2023/07/18 09:41:56;;;;;;;2.42;0.63;;;;;;;24.79;37.22;100230.22;5047584;28;20051;-71
2023/07/18 09:44:26;;;;;;;2.85;0.60;;;;;;;25.27;37.02;100242.75;5047607;28;20084;-71
2023/07/18 09:46:51;;;;;;;2.50;0.60;;;;;;;25.72;35.58;100234.13;5047445;28;20124;-71
2023/07/18 09:49:19;;;;;;;1.27;0.55;;;;;;;25.73;35.74;100234.97;5047590;28;20510;-72
2023/07/18 09:51:50;;;;;;;1.75;0.63;;;;;;;26.12;35.79;100226.72;5047426;28;20026;-69
2023/07/18 09:54:17;;;;;;;0.90;0.40;;;;;;;26.42;35.38;100246.59;5047426;28;20121;-70
2023/07/18 09:56:44;;;;;;;5.88;0.93;;;;;;;26.50;34.55;100237.19;5045853;28;20029;-71
2023/07/18 09:59:10;;;;;;;5.10;0.70;;;;;;;26.31;35.43;100242.13;5047358;28;20025;-70
2023/07/18 10:01:37;;;;;;;0.85;0.60;;;;;;;26.32;36.03;100238.50;5047233;28;20024;-70
2023/07/18 10:04:03;;;;;;;0.80;0.40;;;;;;;26.94;34.38;100238.09;5047094;28;20082;-70
2023/07/18 10:06:29;;;;;;;1.95;0.68;;;;;;;26.87;34.97;100244.88;5029171;28;20120;-71
2023/07/18 10:08:55;;;;;;;1.10;0.50;;;;;;;26.92;35.03;100244.50;5047363;28;20053;-70
2023/07/18 10:11:20;;;;;;;0.93;0.57;;;;;;;26.40;34.32;100242.38;5046862;28;20028;-70
2023/07/18 10:13:54;;;;;;;1.23;0.52;;;;;;;25.45;35.55;100242.31;5046969;28;20018;-70
2023/07/18 10:16:20;;;;;;;1.40;0.52;;;;;;;25.23;37.02;100239.47;5046791;28;20279;-69
2023/07/18 10:18:50;;;;;;;1.85;0.50;;;;;;;25.41;37.17;100236.41;5046793;28;20021;-70
2023/07/18 10:21:33;;;;;;;4.07;0.70;;;;;;;25.59;37.39;100250.13;5046916;28;20112;-71
2023/07/18 10:24:20;;;;;;;0.82;0.40;;;;;;;25.70;36.72;100248.50;5046599;28;20025;-70
2023/07/18 10:26:52;;;;;;;1.77;0.70;;;;;;;25.55;37.23;100245.16;5046464;28;20029;-70
2023/07/18 10:29:18;;;;;;;2.25;0.57;;;;;;;25.78;37.24;100246.13;5046638;28;20056;-70
2023/07/18 10:31:45;;;;;;;2.45;0.73;;;;;;;26.15;36.21;100242.44;5046643;28;20073;-71
2023/07/18 10:34:11;;;;;;;1.80;0.68;;;;;;;26.01;36.12;100245.34;5046484;28;20104;-70
2023/07/18 10:36:38;;;;;;;0.98;0.45;;;;;;;25.87;35.21;100249.88;5046193;28;20059;-71
2023/07/18 10:39:09;;;;;;;1.83;1.10;;;;;;;25.91;35.38;100251.34;5046625;28;20025;-71
2023/07/18 10:41:35;;;;;;;0.90;0.40;;;;;;;26.02;34.30;100241.69;5045622;28;20512;-68
2023/07/18 10:44:01;;;;;;;2.20;0.40;;;;;;;26.06;34.59;100262.63;5046523;28;20049;-70
2023/07/18 10:46:44;;;;;;;7.40;0.75;;;;;;;26.12;35.21;100253.31;5046122;28;20025;-70
2023/07/18 10:49:10;;;;;;;0.80;0.40;;;;;;;26.26;34.03;100227.47;5046230;28;20028;-70
2023/07/18 10:51:35;;;;;;;1.48;0.50;;;;;;;26.22;33.44;100235.69;5046458;28;20026;-69
2023/07/18 10:54:02;;;;;;;3.75;0.40;;;;;;;26.06;34.05;100248.47;5046308;28;20025;-70
2023/07/18 10:56:27;;;;;;;1.27;1.02;;;;;;;25.90;34.34;100252.31;5045924;28;20049;-70
2023/07/18 10:58:56;;;;;;;2.58;0.73;;;;;;;25.88;35.03;100253.41;5046234;28;20057;-70
2023/07/18 11:01:26;;;;;;;1.33;0.40;;;;;;;25.76;35.60;100256.03;5046266;28;20107;-70
2023/07/18 11:03:52;;;;;;;0.80;0.30;;;;;;;25.07;35.57;100252.16;5046217;28;20025;-72
2023/07/18 11:06:18;;;;;;;0.55;0.30;;;;;;;24.06;36.65;100225.50;5045824;28;20449;-71
2023/07/18 11:08:47;;;;;;;0.40;0.40;;;;;;;23.28;38.31;100263.22;5043532;28;20030;-71
2023/07/18 11:11:14;;;;;;;2.92;0.65;;;;;;;22.82;39.55;100259.03;5044561;28;20029;-70
2023/07/18 11:13:43;;;;;;;0.85;0.50;;;;;;;22.51;40.36;100248.53;5045122;28;20493;-71
2023/07/18 11:16:15;;;;;;;0.70;0.30;;;;;;;22.45;40.62;100252.41;5044983;28;20100;-71
2023/07/18 11:18:50;;;;;;;1.63;0.47;;;;;;;22.32;40.52;100246.19;5045010;28;20025;-71
2023/07/18 11:21:20;;;;;;;1.13;0.60;;;;;;;22.16;40.54;100247.09;5044889;28;20025;-71